Ana Sayfa
METAR-TAF:

METAR-TAF

Havaalanları :

Franklin County Airport

Louisburg, Kuzey Carolina, Amerika Birleşik Devletleri

Enlem: 36-01-24N, Boylam: 078-19-49W, yükseklik: 113 m

Güncel hava durumu gözlemi

Rapor saat 15:55 UTC de 15 dakika önce yapıldı.
Rüzgar kuzeydan 8 kt
Sıcaklık 20°C
Nem 49%
Basınç 1021 hPa
Görüş mesafesi: 16.1 km
Açık gökyüzü

METAR: KLHZ 241555Z AUTO 36008KT 10SM CLR 20/09 A3016 RMK AO2

Saat: 12:10 (16:10 UTC)


TAF: eksik

4.000'den fazla havaalanı için hava durumu gözlemleri ve tahminleri (METAR ve TAF raporları).

Kullanılabilir istasyonlar harita üzerinde sarı ve kırmızı noktalarla gösterilir.

İstasyonun adını görmek için fareyi noktanın üzerinde gezdirin.

Sonrasında hava gözlem ve tahminlerini görmek için tıklayın.

Haritayı değiştirmek için: yaklaştırmak için siyah artı işaretli yeşil düğmeye ve uzaklaştırmak için de eksi işaretli düğmeye hızla tıklayın; bitişik haritalar için yeşil okları kullanın.


METAR-TAF: